Burns Flat, Oklahoma
Current Conditions -  °F | °C
As of 6:53 PM on Saturday 25 Oct 2014 (Local Time) from KCSM Reporting Station
Clear Clear  
Wind Chill: 25°   Ceiling: Unl
Heat Index: 26°   Visibility: 10mi
Dew Point: 12°   Wind: 10mph
Humidity: 43%   Direction: 160°SSE
Pressure: 30.03"   Gusts: NA
Location:  35.35°N, 99.17°W
Report Text: KCSM 252353Z AUTO 16009KT 10SM CLR 25/12 A3003 RMK AO2 SLP152 T02500117 10328 20250 58010
Loading
Personal Weather Stations






























Interactive Weather Map
Tropical Storm Tracking
New forecast layout! Learn more

10-Day Weather Forecast

Advertisements
Track Severe Weather on mobile